Time;durP1;ratioP1;P1;durP2;ratioP2;P2;SDS_P1;SDS_P2;PMS_P1;PMS_P2;Temp;Humidity;BMP_temperature;BMP_pressure;BME280_temperature;BME280_humidity;BME280_pressure;Samples;Min_cycle;Max_cycle;Signal;HPM_P1;HPM_P2
2024/04/09 00:01:08;;;;;;;52.20;32.85;;;;;;;;;;5142140;27;20485;-69
2024/04/09 00:04:12;;;;;;;49.42;32.88;;;;;;;;;;5142457;27;20037;-68
2024/04/09 00:07:18;;;;;;;46.70;31.75;;;;;;;;;;5142070;27;20037;-69
2024/04/09 00:10:23;;;;;;;44.75;30.20;;;;;;;;;;5142105;27;20045;-68
2024/04/09 00:13:29;;;;;;;50.00;30.08;;;;;;;;;;5142116;27;20614;-69
2024/04/09 00:16:39;;;;;;;46.65;28.70;;;;;;;;;;5141783;27;20049;-69
2024/04/09 00:19:44;;;;;;;42.42;28.05;;;;;;;;;;5142112;27;20061;-68
2024/04/09 00:22:48;;;;;;;38.13;26.67;;;;;;;;;;5141997;27;20041;-69
2024/04/09 00:25:53;;;;;;;36.40;26.23;;;;;;;;;;5141707;27;20033;-69
2024/04/09 00:28:59;;;;;;;43.85;27.23;;;17.10;98.20;;;;;;5141911;27;20037;-69
2024/04/09 00:32:04;;;;;;;45.53;26.38;;;;;;;;;;5141839;27;20025;-69
2024/04/09 00:35:11;;;;;;;38.65;24.30;;;;;;;;;;5141592;27;20033;-69
2024/04/09 00:38:19;;;;;;;32.72;23.00;;;;;;;;;;5141694;27;20041;-69
2024/04/09 00:41:25;;;;;;;30.08;21.67;;;;;;;;;;5141872;27;20033;-69
2024/04/09 00:44:31;;;;;;;34.22;18.80;;;16.80;97.80;;;;;;5141385;27;20048;-69
2024/04/09 00:47:35;;;;;;;24.58;17.65;;;;;;;;;;5141441;27;20031;-69
2024/04/09 00:50:45;;;;;;;27.23;18.75;;;;;;;;;;5141685;27;20033;-69
2024/04/09 00:53:49;;;;;;;22.77;17.05;;;;;;;;;;5141546;27;20109;-68
2024/04/09 00:56:56;;;;;;;29.48;18.52;;;16.90;97.20;;;;;;5144535;27;20041;-69
2024/04/09 01:00:05;;;;;;;29.48;19.08;;;;;;;;;;5144726;27;20634;-69
2024/04/09 01:03:10;;;;;;;31.83;19.67;;;16.90;97.10;;;;;;5144917;27;20485;-69
2024/04/09 01:06:15;;;;;;;31.20;19.83;;;;;;;;;;5144716;27;20025;-69
2024/04/09 01:09:20;;;;;;;34.25;20.02;;;;;;;;;;5144500;27;20041;-69
2024/04/09 01:12:24;;;;;;;34.00;20.83;;;;;;;;;;5144471;27;20036;-69
2024/04/09 01:15:30;;;;;;;28.52;19.52;;;;;;;;;;5144399;27;20474;-69
2024/04/09 01:18:34;;;;;;;32.20;19.30;;;;;;;;;;5144857;27;20033;-69
2024/04/09 01:21:39;;;;;;;29.10;19.50;;;;;;;;;;5144917;27;20108;-69
2024/04/09 01:24:44;;;;;;;31.20;17.38;;;;;;;;;;5144386;27;20041;-68
2024/04/09 01:27:48;;;;;;;22.13;15.68;;;;;;;;;;5144441;27;20041;-68
2024/04/09 01:30:55;;;;;;;19.63;15.30;;;;;;;;;;5144524;27;20037;-69
2024/04/09 01:34:02;;;;;;;27.67;16.42;;;;;;;;;;5144632;27;20037;-68
2024/04/09 01:37:11;;;;;;;35.30;20.55;;;;;;;;;;5144227;27;20054;-69
2024/04/09 01:40:16;;;;;;;36.50;22.00;;;;;;;;;;5144432;27;20041;-68
2024/04/09 01:43:20;;;;;;;34.63;23.15;;;;;;;;;;5143982;27;20378;-69
2024/04/09 01:46:24;;;;;;;37.10;24.80;;;;;;;;;;5144195;27;20041;-69
2024/04/09 01:49:29;;;;;;;37.65;25.55;;;;;;;;;;5144060;27;20041;-68
2024/04/09 01:52:34;;;;;;;45.28;28.38;;;;;;;;;;5143946;27;20033;-68
2024/04/09 01:55:39;;;;;;;48.10;31.33;;;;;;;;;;5143913;27;20025;-69
2024/04/09 01:58:43;;;;;;;42.08;31.17;;;;;;;;;;5144098;27;20749;-68
2024/04/09 02:01:47;;;;;;;45.42;29.95;;;;;;;;;;5143797;27;20382;-69
2024/04/09 02:04:52;;;;;;;41.05;29.35;;;;;;;;;;5143922;27;20378;-69
2024/04/09 02:07:57;;;;;;;44.70;30.35;;;;;;;;;;5143752;27;20108;-69
2024/04/09 02:11:05;;;;;;;50.35;33.08;;;;;;;;;;5144292;27;20490;-69
2024/04/09 02:14:10;;;;;;;45.90;29.80;;;;;;;;;;5143717;27;20041;-68
2024/04/09 02:17:14;;;;;;;44.88;30.17;;;;;;;;;;5144154;27;20037;-68
2024/04/09 02:20:19;;;;;;;40.97;29.00;;;;;;;;;;5143908;27;20459;-68
2024/04/09 02:23:26;;;;;;;47.47;30.30;;;;;;;;;;5143983;27;20037;-69
2024/04/09 02:26:31;;;;;;;49.67;31.58;;;;;;;;;;5144029;27;20061;-68
2024/04/09 02:29:38;;;;;;;51.63;32.00;;;;;;;;;;5144018;27;20043;-69
2024/04/09 02:32:43;;;;;;;50.17;34.20;;;;;;;;;;5143686;27;20033;-69
2024/04/09 02:36:11;;;;;;;53.97;36.55;;;17.90;99.90;;;;;;5143768;27;20386;-69
2024/04/09 02:39:16;;;;;;;59.53;33.75;;;;;;;;;;5143368;27;20676;-69
2024/04/09 02:42:24;;;;;;;50.08;33.10;;;;;;;;;;5143651;27;20117;-69
2024/04/09 02:45:29;;;;;;;42.72;30.17;;;;;;;;;;5143117;27;20545;-68
2024/04/09 02:48:34;;;;;;;45.38;31.65;;;;;;;;;;5142907;27;20037;-69
2024/04/09 02:51:39;;;;;;;45.72;30.90;;;16.30;98.90;;;;;;5143737;27;20032;-68
2024/04/09 02:54:43;;;;;;;41.17;29.55;;;;;;;;;;5143810;27;20029;-68
2024/04/09 02:57:51;;;;;;;46.95;31.52;;;;;;;;;;5143049;27;20493;-68
2024/04/09 03:00:56;;;;;;;42.72;32.55;;;16.30;99.10;;;;;;5143481;27;20033;-68
2024/04/09 03:04:01;;;;;;;51.70;32.47;;;;;;;;;;5143165;27;20032;-68
2024/04/09 03:07:05;;;;;;;55.15;33.60;;;;;;;;;;5142311;27;20053;-68
2024/04/09 03:10:13;;;;;;;51.08;35.85;;;;;;;;;;5143206;27;20033;-69
2024/04/09 03:13:18;;;;;;;59.60;40.17;;;;;;;;;;5142964;27;20033;-68
2024/04/09 03:16:23;;;;;;;64.90;40.25;;;;;;;;;;5142951;27;20378;-69
2024/04/09 03:19:27;;;;;;;60.78;39.00;;;;;;;;;;5142765;27;20037;-68
2024/04/09 03:22:31;;;;;;;64.28;39.40;;;;;;;;;;5143120;27;20482;-69
2024/04/09 03:25:36;;;;;;;55.35;36.95;;;;;;;;;;5142680;27;20734;-69
2024/04/09 03:28:41;;;;;;;52.03;36.50;;;;;;;;;;5142638;27;20033;-69
2024/04/09 03:31:49;;;;;;;81.72;45.15;;;;;;;;;;5142736;27;20033;-69
2024/04/09 03:34:53;;;;;;;92.63;48.45;;;;;;;;;;5142391;27;20049;-69
2024/04/09 03:37:58;;;;;;;95.85;49.58;;;;;;;;;;5142308;27;20045;-68
2024/04/09 03:41:04;;;;;;;81.40;45.28;;;15.90;99.90;;;;;;5142336;27;20029;-68
2024/04/09 03:44:11;;;;;;;89.85;47.85;;;;;;;;;;5142176;27;20025;-68
2024/04/09 03:47:15;;;;;;;92.13;50.10;;;;;;;;;;5142074;27;20025;-68
2024/04/09 03:50:20;;;;;;;91.38;50.25;;;;;;;;;;5142309;27;20033;-68
2024/04/09 03:53:25;;;;;;;99.25;53.60;;;;;;;;;;5142785;27;20481;-68
2024/04/09 03:56:30;;;;;;;106.55;55.15;;;;;;;;;;5142223;27;20037;-68
2024/04/09 03:59:34;;;;;;;113.28;55.63;;;;;;;;;;5142563;27;20029;-68
2024/04/09 04:02:39;;;;;;;105.93;53.78;;;;;;;;;;5142453;27;20029;-68
2024/04/09 04:05:50;;;;;;;112.75;55.03;;;16.00;99.90;;;;;;5142175;27;20029;-68
2024/04/09 04:08:54;;;;;;;108.90;56.28;;;;;;;;;;5142281;27;20029;-68
2024/04/09 04:11:59;;;;;;;110.20;53.90;;;;;;;;;;5142236;27;20044;-69
2024/04/09 04:15:03;;;;;;;169.55;56.40;;;;;;;;;;5142026;27;20025;-68
2024/04/09 04:18:08;;;;;;;119.45;54.33;;;;;;;;;;5142308;27;20369;-68
2024/04/09 04:21:17;;;;;;;245.18;55.55;;;15.90;99.90;;;;;;5141983;27;20390;-68
2024/04/09 04:24:28;;;;;;;100.60;55.03;;;;;;;;;;5142062;27;20466;-68
2024/04/09 04:27:36;;;;;;;178.00;55.85;;;;;;;;;;5141826;27;20057;-68
2024/04/09 04:30:40;;;;;;;99.80;55.20;;;;;;;;;;5145181;27;20029;-68
2024/04/09 04:33:47;;;;;;;92.80;53.42;;;15.60;99.90;;;;;;5145189;27;20029;-68
2024/04/09 04:36:51;;;;;;;94.63;52.35;;;;;;;;;;5145228;27;20025;-68
2024/04/09 04:39:55;;;;;;;91.97;52.08;;;;;;;;;;5145287;27;20029;-68
2024/04/09 04:43:00;;;;;;;124.47;51.67;;;;;;;;;;5144995;27;20029;-68
2024/04/09 04:46:07;;;;;;;126.53;52.38;;;;;;;;;;5145137;27;20026;-68
2024/04/09 04:49:12;;;;;;;116.05;51.08;;;;;;;;;;5145241;27;20025;-68
2024/04/09 04:52:19;;;;;;;111.85;52.53;;;;;;;;;;5145059;27;20025;-69
2024/04/09 04:55:24;;;;;;;168.60;52.78;;;;;;;;;;5144893;27;20021;-68
2024/04/09 04:58:31;;;;;;;136.10;53.85;;;;;;;;;;5145239;27;20025;-69
2024/04/09 05:01:35;;;;;;;96.35;53.33;;;;;;;;;;5144947;27;20477;-68
2024/04/09 05:04:39;;;;;;;111.43;56.85;;;;;;;;;;5144666;27;20037;-68
2024/04/09 05:07:43;;;;;;;94.53;53.60;;;;;;;;;;5144251;27;20037;-68
2024/04/09 05:10:48;;;;;;;218.93;56.28;;;;;;;;;;5144306;27;20450;-68
2024/04/09 05:13:52;;;;;;;95.55;52.83;;;;;;;;;;5144337;27;20037;-68
2024/04/09 05:16:57;;;;;;;129.43;55.30;;;;;;;;;;5144406;27;20041;-68
2024/04/09 05:20:09;;;;;;;135.73;55.22;;;15.50;99.90;;;;;;5144447;27;20029;-68
2024/04/09 05:23:14;;;;;;;129.18;58.33;;;;;;;;;;5144190;27;20037;-68
2024/04/09 05:26:19;;;;;;;177.80;56.13;;;;;;;;;;5144137;27;20029;-68
2024/04/09 05:29:23;;;;;;;445.38;59.20;;;;;;;;;;5144100;27;20029;-68
2024/04/09 05:32:28;;;;;;;155.00;55.50;;;15.40;99.90;;;;;;5144307;27;20403;-68
2024/04/09 05:35:33;;;;;;;365.73;58.10;;;;;;;;;;5143475;27;20442;-59
2024/04/09 05:38:37;;;;;;;283.45;57.83;;;;;;;;;;5144021;27;20028;-59
2024/04/09 05:41:42;;;;;;;91.82;55.22;;;;;;;;;;5143374;27;20025;-59
2024/04/09 05:44:47;;;;;;;74.53;49.15;;;15.60;99.90;;;;;;5143622;27;20025;-59
2024/04/09 05:47:51;;;;;;;74.00;48.42;;;;;;;;;;5143299;27;20089;-59
2024/04/09 05:50:56;;;;;;;65.45;44.42;;;;;;;;;;5144016;27;20025;-59
2024/04/09 05:54:00;;;;;;;58.53;41.42;;;;;;;;;;5143367;27;20037;-59
2024/04/09 05:57:08;;;;;;;61.38;39.58;;;;;;;;;;5143735;27;20044;-59
2024/04/09 06:00:14;;;;;;;140.35;45.40;;;;;;;;;;5143852;27;20049;-59
2024/04/09 06:03:18;;;;;;;58.03;40.33;;;;;;;;;;5143716;27;20089;-59
2024/04/09 06:06:23;;;;;;;54.80;37.67;;;;;;;;;;5143565;27;20025;-59
2024/04/09 06:09:27;;;;;;;49.30;37.60;;;;;;;;;;5143424;27;20025;-63
2024/04/09 06:12:32;;;;;;;54.75;37.28;;;;;;;;;;5143539;27;20025;-60
2024/04/09 06:15:38;;;;;;;54.78;36.25;;;;;;;;;;5143084;27;20037;-60
2024/04/09 06:18:45;;;;;;;49.95;36.58;;;;;;;;;;5143708;27;20034;-60
2024/04/09 06:21:50;;;;;;;55.53;36.15;;;;;;;;;;5143384;27;20025;-60
2024/04/09 06:24:54;;;;;;;50.00;33.40;;;;;;;;;;5142203;27;20029;-61
2024/04/09 06:27:58;;;;;;;50.63;34.47;;;;;;;;;;5143076;27;20041;-61
2024/04/09 06:31:03;;;;;;;49.78;34.08;;;19.40;99.90;;;;;;5141511;27;20489;-61
2024/04/09 06:34:07;;;;;;;53.20;34.03;;;19.20;99.90;;;;;;5143096;27;20038;-61
2024/04/09 06:37:11;;;;;;;53.70;35.22;;;19.70;99.50;;;;;;5143026;27;20029;-61
2024/04/09 06:40:16;;;;;;;49.60;35.53;;;20.00;98.80;;;;;;5143455;27;20033;-60
2024/04/09 06:43:20;;;;;;;56.40;35.03;;;20.20;98.20;;;;;;5143086;27;20033;-61
2024/04/09 06:46:24;;;;;;;53.30;35.05;;;20.50;97.90;;;;;;5142885;27;20049;-61
2024/04/09 06:49:28;;;;;;;49.83;35.05;;;20.80;97.50;;;;;;5142975;27;20033;-60
2024/04/09 06:52:36;;;;;;;52.03;36.38;;;21.10;97.20;;;;;;5142915;27;20025;-60
2024/04/09 06:55:40;;;;;;;51.45;36.15;;;21.30;96.50;;;;;;5142422;27;20025;-60
2024/04/09 06:58:47;;;;;;;53.83;36.17;;;21.50;96.40;;;;;;5142840;27;20025;-60
2024/04/09 07:01:52;;;;;;;58.25;39.28;;;21.60;96.10;;;;;;5142645;27;20037;-60
2024/04/09 07:04:56;;;;;;;54.80;38.92;;;21.70;95.70;;;;;;5143052;27;20376;-60
2024/04/09 07:08:01;;;;;;;76.53;40.22;;;21.90;95.80;;;;;;5142480;27;20032;-60
2024/04/09 07:11:06;;;;;;;62.67;39.60;;;22.00;95.70;;;;;;5142665;27;20029;-60
2024/04/09 07:14:13;;;;;;;57.38;36.85;;;22.10;95.30;;;;;;5142496;27;20434;-60
2024/04/09 07:17:17;;;;;;;57.22;36.42;;;22.30;95.10;;;;;;5142637;27;20359;-61
2024/04/09 07:20:23;;;;;;;60.13;38.00;;;22.60;94.90;;;;;;5142573;27;20140;-60
2024/04/09 07:23:27;;;;;;;58.35;40.03;;;22.70;94.80;;;;;;5142801;27;20037;-60
2024/04/09 07:26:32;;;;;;;65.05;42.03;;;23.00;94.70;;;;;;5142908;27;20029;-60
2024/04/09 07:29:36;;;;;;;64.43;39.22;;;23.10;94.60;;;;;;5142835;27;20029;-60
2024/04/09 07:32:40;;;;;;;61.55;41.97;;;23.20;94.60;;;;;;5142289;27;20040;-60
2024/04/09 07:35:45;;;;;;;60.80;40.22;;;23.40;94.30;;;;;;5142243;27;20025;-60
2024/04/09 07:38:49;;;;;;;64.43;41.30;;;23.50;93.40;;;;;;5142540;27;20025;-61
2024/04/09 07:41:55;;;;;;;50.78;36.15;;;23.50;93.10;;;;;;5142197;27;20029;-61
2024/04/09 07:44:59;;;;;;;50.63;35.38;;;23.50;93.40;;;;;;5142969;27;20638;-60
2024/04/09 07:48:04;;;;;;;45.63;32.70;;;23.60;93.10;;;;;;5142894;27;20025;-61
2024/04/09 07:51:08;;;;;;;47.67;28.48;;;23.70;92.60;;;;;;5142954;27;20033;-60
2024/04/09 07:54:12;;;;;;;47.45;30.85;;;23.80;91.80;;;;;;5142319;27;20041;-61
2024/04/09 07:57:16;;;;;;;40.30;26.73;;;23.30;91.80;;;;;;5142612;27;20044;-61
2024/04/09 08:00:20;;;;;;;40.72;25.80;;;23.90;92.10;;;;;;5142037;27;20456;-60
2024/04/09 08:03:25;;;;;;;36.35;26.90;;;24.10;91.70;;;;;;5139812;27;20033;-60
2024/04/09 08:06:31;;;;;;;41.38;27.05;;;24.10;91.20;;;;;;5142012;27;20029;-61
2024/04/09 08:09:35;;;;;;;33.25;24.40;;;24.00;91.50;;;;;;5141929;27;20029;-61
2024/04/09 08:12:54;;;;;;;46.33;27.13;;;24.00;91.60;;;;;;5141583;27;20029;-61
2024/04/09 08:15:58;;;;;;;36.90;25.73;;;24.10;91.40;;;;;;5140628;27;20373;-61
2024/04/09 08:19:03;;;;;;;35.72;24.90;;;24.40;91.30;;;;;;5141856;27;20033;-61
2024/04/09 08:22:06;;;;;;;39.10;25.00;;;24.40;90.50;;;;;;5141707;27;20028;-61
2024/04/09 08:25:13;;;;;;;30.77;22.10;;;24.20;90.70;;;;;;5141661;27;20041;-61
2024/04/09 08:28:20;;;;;;;26.40;19.10;;;24.20;89.50;;;;;;5142107;27;20029;-61
2024/04/09 08:31:29;;;;;;;26.08;18.25;;;24.20;90.00;;;;;;5141836;27;20029;-61
2024/04/09 08:34:33;;;;;;;32.83;19.80;;;24.30;90.10;;;;;;5141649;27;20029;-61
2024/04/09 08:37:37;;;;;;;29.60;19.65;;;24.40;90.10;;;;;;5140792;27;20349;-60
2024/04/09 08:40:41;;;;;;;22.02;16.65;;;24.50;88.90;;;;;;5140758;27;20361;-59
2024/04/09 08:43:47;;;;;;;28.77;19.30;;;24.50;89.50;;;;;;5139923;27;20451;-60
2024/04/09 08:46:54;;;;;;;30.17;20.63;;;24.60;89.70;;;;;;5141118;27;20089;-59
2024/04/09 08:49:58;;;;;;;27.35;20.73;;;24.50;89.40;;;;;;5141346;27;20032;-59
2024/04/09 08:53:02;;;;;;;30.73;18.33;;;24.60;89.90;;;;;;5141351;27;20474;-59
2024/04/09 08:56:06;;;;;;;26.60;16.45;;;24.70;90.00;;;;;;5140967;27;20450;-58
2024/04/09 08:59:10;;;;;;;24.20;16.65;;;24.40;88.90;;;;;;5140838;27;20373;-59
2024/04/09 09:02:16;;;;;;;21.30;9.90;;;24.80;86.30;;;;;;5140717;27;20349;-59
2024/04/09 09:05:23;;;;;;;13.75;6.78;;;24.80;86.70;;;;;;5140663;27;20041;-59
2024/04/09 09:08:41;;;;;;;14.07;8.70;;;24.90;83.70;;;;;;5138696;27;20537;-59
2024/04/09 09:11:46;;;;;;;19.02;7.70;;;24.90;83.90;;;;;;5138915;27;20376;-60
2024/04/09 09:14:55;;;;;;;10.30;6.63;;;24.90;83.50;;;;;;5140544;27;20017;-59
2024/04/09 09:17:59;;;;;;;11.35;6.70;;;25.00;82.90;;;;;;5141055;27;20337;-58
2024/04/09 09:21:04;;;;;;;14.88;6.80;;;25.00;82.50;;;;;;5143142;27;20033;-59
2024/04/09 09:24:08;;;;;;;11.80;5.30;;;25.00;80.80;;;;;;5144419;27;20029;-64
2024/04/09 09:27:12;;;;;;;12.90;5.00;;;25.00;81.40;;;;;;5144125;27;20033;-58
2024/04/09 09:30:19;;;;;;;13.60;5.70;;;25.10;81.20;;;;;;5143295;27;20029;-59
2024/04/09 09:33:31;;;;;;;11.93;5.57;;;25.20;81.20;;;;;;5144203;27;20145;-59
2024/04/09 09:36:37;;;;;;;9.93;5.00;;;25.30;79.30;;;;;;5143261;27;20025;-59
2024/04/09 09:39:41;;;;;;;11.90;5.03;;;25.20;79.40;;;;;;5143928;27;20033;-58
2024/04/09 09:42:47;;;;;;;8.93;4.88;;;25.00;78.00;;;;;;5142176;27;20704;-59
2024/04/09 09:45:51;;;;;;;10.75;4.85;;;25.20;78.70;;;;;;5143884;27;20042;-58
2024/04/09 09:48:57;;;;;;;8.80;4.68;;;25.30;79.30;;;;;;5143580;27;20029;-59
2024/04/09 09:52:02;;;;;;;8.27;4.30;;;25.40;79.80;;;;;;5143809;27;20029;-59
2024/04/09 09:55:09;;;;;;;18.05;5.22;;;25.50;79.50;;;;;;5142775;27;20053;-59
2024/04/09 09:58:23;;;;;;;14.90;5.22;;;25.60;78.70;;;;;;5142973;27;20029;-58
2024/04/09 10:01:27;;;;;;;7.50;4.90;;;25.60;78.90;;;;;;5143523;27;20373;-60
2024/04/09 10:04:32;;;;;;;8.45;4.32;;;25.70;79.00;;;;;;5143522;27;20450;-60
2024/04/09 10:07:36;;;;;;;12.85;4.50;;;25.80;77.10;;;;;;5143283;27;20627;-59
2024/04/09 10:10:42;;;;;;;8.90;4.90;;;25.90;76.20;;;;;;5143495;27;20033;-60
2024/04/09 10:13:51;;;;;;;11.57;5.78;;;25.90;76.70;;;;;;5143259;27;20033;-60
2024/04/09 10:17:11;;;;;;;12.57;5.50;;;26.00;76.00;;;;;;5143612;27;20040;-62
2024/04/09 10:20:46;;;;;;;7.88;5.18;;;26.00;76.20;;;;;;5143372;27;20024;-60
2024/04/09 10:23:50;;;;;;;12.90;5.70;;;26.10;76.10;;;;;;5140307;27;20674;-62
2024/04/09 10:26:54;;;;;;;15.48;5.47;;;26.20;75.50;;;;;;5140766;27;20026;-64
2024/04/09 10:29:58;;;;;;;10.80;5.43;;;26.20;76.90;;;;;;5141797;27;20025;-64
2024/04/09 10:33:04;;;;;;;17.70;6.35;;;26.30;76.50;;;;;;5140385;27;20120;-62
2024/04/09 10:36:13;;;;;;;12.75;6.55;;;26.30;76.80;;;;;;5141048;27;20001;-62
2024/04/09 10:39:20;;;;;;;17.27;8.02;;;26.30;76.70;;;;;;5142990;27;20029;-63
2024/04/09 10:42:24;;;;;;;15.68;7.70;;;26.20;73.90;;;;;;5143135;27;20478;-63
2024/04/09 10:45:29;;;;;;;21.50;8.15;;;26.20;75.30;;;;;;5142975;27;20025;-62
2024/04/09 10:48:34;;;;;;;13.65;6.80;;;26.30;76.30;;;;;;5143051;27;20037;-63
2024/04/09 10:51:38;;;;;;;8.77;4.30;;;26.30;70.40;;;;;;5142976;27;20030;-62
2024/04/09 10:54:43;;;;;;;6.80;3.65;;;26.30;71.10;;;;;;5143112;27;20054;-63
2024/04/09 10:57:52;;;;;;;9.65;3.28;;;26.40;67.90;;;;;;5142906;27;20056;-62
2024/04/09 11:00:57;;;;;;;5.72;2.55;;;26.30;68.50;;;;;;5142874;27;20048;-60
2024/04/09 11:04:01;;;;;;;10.93;3.53;;;26.50;66.70;;;;;;5142446;27;20037;-61
2024/04/09 11:07:07;;;;;;;3.13;2.20;;;26.20;64.50;;;;;;5142868;27;20032;-61
2024/04/09 11:10:19;;;;;;;5.43;2.28;;;26.40;65.20;;;;;;5142903;27;20033;-60
2024/04/09 11:13:24;;;;;;;13.25;2.90;;;26.50;65.40;;;;;;5142844;27;20033;-60
2024/04/09 11:16:31;;;;;;;7.60;2.20;;;26.50;62.50;;;;;;5142651;27;20025;-60
2024/04/09 11:19:34;;;;;;;6.72;2.38;;;26.50;63.50;;;;;;5140590;27;20054;-60
2024/04/09 11:22:42;;;;;;;5.55;2.50;;;26.40;65.70;;;;;;5142373;27;20029;-59
2024/04/09 11:25:46;;;;;;;3.53;2.10;;;26.40;64.40;;;;;;5142106;27;20366;-61
2024/04/09 11:28:52;;;;;;;5.85;2.40;;;26.40;63.20;;;;;;5142474;27;20033;-60
2024/04/09 11:32:06;;;;;;;8.90;2.63;;;26.30;64.50;;;;;;5142902;27;20486;-60
2024/04/09 11:35:18;;;;;;;7.10;2.83;;;26.40;65.10;;;;;;5142525;27;20033;-60
2024/04/09 11:38:22;;;;;;;9.18;2.38;;;26.30;65.00;;;;;;5141483;27;20041;-60
2024/04/09 11:41:26;;;;;;;11.82;3.40;;;26.20;64.50;;;;;;5142407;27;20493;-62
2024/04/09 11:44:30;;;;;;;5.72;2.40;;;26.20;65.00;;;;;;5142256;27;20025;-60
2024/04/09 11:47:37;;;;;;;5.78;2.70;;;26.10;63.90;;;;;;5142236;27;20268;-60
2024/04/09 11:50:41;;;;;;;6.05;2.33;;;26.10;64.10;;;;;;5142604;27;20037;-60
2024/04/09 11:53:45;;;;;;;6.00;2.70;;;26.10;63.20;;;;;;5142134;27;20037;-60
2024/04/09 11:56:49;;;;;;;6.43;1.85;;;26.20;64.00;;;;;;5142130;27;20732;-60
2024/04/09 11:59:53;;;;;;;5.05;2.50;;;26.30;61.90;;;;;;5142596;27;20037;-60
2024/04/09 12:03:02;;;;;;;7.65;2.00;;;26.30;60.90;;;;;;5142243;27;20509;-60
2024/04/09 12:06:06;;;;;;;6.00;2.20;;;26.30;61.20;;;;;;5142094;27;20322;-60
2024/04/09 12:09:11;;;;;;;5.97;2.70;;;26.20;61.90;;;;;;5140610;27;20033;-60
2024/04/09 12:12:17;;;;;;;7.90;1.90;;;26.20;63.00;;;;;;5140959;27;20041;-62
2024/04/09 12:15:20;;;;;;;5.72;2.30;;;26.30;62.40;;;;;;5140386;27;20457;-60
2024/04/09 12:18:24;;;;;;;7.20;2.38;;;26.20;63.00;;;;;;5141676;27;20040;-61
2024/04/09 12:21:28;;;;;;;6.57;3.17;;;26.30;63.60;;;;;;5141840;27;20040;-60
2024/04/09 12:24:32;;;;;;;5.65;2.08;;;26.30;63.20;;;;;;5141599;27;20037;-61
2024/04/09 12:27:36;;;;;;;3.30;2.15;;;26.30;63.30;;;;;;5141969;27;20049;-60
2024/04/09 12:30:41;;;;;;;20.02;3.20;;;26.30;63.50;;;;;;5141819;27;20497;-61
2024/04/09 12:33:45;;;;;;;6.00;2.00;;;26.30;63.10;;;;;;5141631;27;20045;-60
2024/04/09 12:36:53;;;;;;;4.82;2.17;;;26.20;62.90;;;;;;5141426;27;20037;-59
2024/04/09 12:39:57;;;;;;;7.18;2.40;;;26.30;63.70;;;;;;5141954;27;20378;-59
2024/04/09 12:43:01;;;;;;;6.55;2.38;;;26.20;63.50;;;;;;5141543;27;20037;-60
2024/04/09 12:46:05;;;;;;;11.40;2.70;;;26.20;63.40;;;;;;5141488;27;20037;-62
2024/04/09 12:49:10;;;;;;;8.98;2.55;;;26.20;63.60;;;;;;5141476;27;20029;-60
2024/04/09 12:52:14;;;;;;;2.92;2.22;;;26.20;63.80;;;;;;5144403;27;20037;-59
2024/04/09 12:55:19;;;;;;;5.15;2.50;;;26.20;64.10;;;;;;5144769;27;20033;-59
2024/04/09 12:58:23;;;;;;;7.38;3.10;;;26.20;63.70;;;;;;5144441;27;20037;-61
2024/04/09 13:01:27;;;;;;;4.85;2.50;;;26.20;63.50;;;;;;5144252;27;20033;-60
2024/04/09 13:04:32;;;;;;;7.63;2.50;;;26.20;63.00;;;;;;5144457;27;20382;-59
2024/04/09 13:07:36;;;;;;;5.13;2.45;;;26.20;63.20;;;;;;5144756;27;20490;-60
2024/04/09 13:10:40;;;;;;;6.85;2.97;;;26.10;63.70;;;;;;5145150;27;20037;-60
2024/04/09 13:13:44;;;;;;;4.43;2.47;;;26.10;64.00;;;;;;5144411;27;20120;-59
2024/04/09 13:16:48;;;;;;;6.32;2.50;;;26.00;63.90;;;;;;5144320;27;20509;-59
2024/04/09 13:19:53;;;;;;;5.75;2.42;;;26.00;64.30;;;;;;5144169;27;20033;-59
2024/04/09 13:22:57;;;;;;;7.30;3.13;;;26.00;64.70;;;;;;5144255;27;20108;-59
2024/04/09 13:26:03;;;;;;;6.53;2.65;;;26.00;64.30;;;;;;5144438;27;20033;-61
2024/04/09 13:29:07;;;;;;;4.93;2.50;;;25.90;64.60;;;;;;5144434;27;20037;-60
2024/04/09 13:32:11;;;;;;;4.03;2.70;;;26.00;65.00;;;;;;5143243;27;20654;-60
2024/04/09 13:35:16;;;;;;;6.38;2.35;;;25.90;63.60;;;;;;5143067;27;20040;-60
2024/04/09 13:38:20;;;;;;;8.88;2.67;;;25.90;63.70;;;;;;5142991;27;20037;-59
2024/04/09 13:41:24;;;;;;;5.45;2.50;;;26.00;64.20;;;;;;5144035;27;20029;-61
2024/04/09 13:44:28;;;;;;;3.85;2.40;;;25.90;63.90;;;;;;5143766;27;20056;-60
2024/04/09 13:47:32;;;;;;;4.38;2.00;;;25.90;62.90;;;;;;5143586;27;20109;-60
2024/04/09 13:50:37;;;;;;;5.07;2.03;;;26.00;61.70;;;;;;5143519;27;20037;-61
2024/04/09 13:53:41;;;;;;;5.63;1.90;;;26.00;62.20;;;;;;5142444;27;20377;-61
2024/04/09 13:56:45;;;;;;;5.40;2.22;;;26.00;62.60;;;;;;5143516;27;20037;-61
2024/04/09 13:59:49;;;;;;;5.18;1.92;;;26.00;63.00;;;;;;5143210;27;20041;-61
2024/04/09 14:02:54;;;;;;;3.10;1.80;;;25.90;64.10;;;;;;5142491;27;20054;-61
2024/04/09 14:05:58;;;;;;;3.63;2.10;;;25.90;64.50;;;;;;5144060;27;20466;-61
2024/04/09 14:09:09;;;;;;;8.88;2.33;;;25.90;63.60;;;;;;5143407;27;20037;-61
2024/04/09 14:12:31;;;;;;;4.50;2.30;;;25.80;63.50;;;;;;5143266;27;20041;-60
2024/04/09 14:15:35;;;;;;;7.13;2.63;;;25.90;63.70;;;;;;5143362;27;20374;-59
2024/04/09 14:18:40;;;;;;;4.75;2.58;;;25.90;64.30;;;;;;5143385;27;20037;-61
2024/04/09 14:21:44;;;;;;;4.38;2.30;;;25.90;64.90;;;;;;5143384;27;20041;-61
2024/04/09 14:24:50;;;;;;;4.85;2.30;;;25.90;64.50;;;;;;5142613;27;20037;-60
2024/04/09 14:27:54;;;;;;;4.28;2.50;;;25.90;65.10;;;;;;5143154;27;20052;-59
2024/04/09 14:30:58;;;;;;;13.05;3.13;;;25.80;64.90;;;;;;5143592;27;20040;-59
2024/04/09 14:34:03;;;;;;;5.00;2.80;;;25.80;65.00;;;;;;5142837;27;20033;-60
2024/04/09 14:37:08;;;;;;;11.52;2.92;;;25.90;66.60;;;;;;5142460;27;20041;-60
2024/04/09 14:40:12;;;;;;;12.27;3.22;;;25.80;67.40;;;;;;5139729;27;20357;-59
2024/04/09 14:43:16;;;;;;;8.40;3.47;;;25.70;67.80;;;;;;5139362;27;19997;-60
2024/04/09 14:46:21;;;;;;;7.55;3.22;;;25.70;68.50;;;;;;5139609;27;20015;-60
2024/04/09 14:49:26;;;;;;;7.28;2.97;;;25.70;69.10;;;;;;5139571;27;20028;-61
2024/04/09 14:52:31;;;;;;;5.28;2.67;;;25.60;69.30;;;;;;5142484;27;20048;-61
2024/04/09 14:55:35;;;;;;;6.35;2.92;;;25.60;69.80;;;;;;5142989;27;20370;-60
2024/04/09 14:58:39;;;;;;;8.15;3.00;;;25.60;71.10;;;;;;5141857;27;20113;-60
2024/04/09 15:01:44;;;;;;;5.60;2.83;;;25.50;71.60;;;;;;5142160;27;20033;-61
2024/04/09 15:04:48;;;;;;;6.50;2.45;;;25.30;70.30;;;;;;5142614;27;20029;-60
2024/04/09 15:07:52;;;;;;;6.50;2.60;;;25.20;70.10;;;;;;5142949;27;20036;-60
2024/04/09 15:10:57;;;;;;;5.50;2.13;;;24.90;71.00;;;;;;5142363;27;20033;-60
2024/04/09 15:14:01;;;;;;;13.60;3.17;;;24.90;71.90;;;;;;5141209;27;20048;-61
2024/04/09 15:17:06;;;;;;;10.88;3.00;;;24.90;72.60;;;;;;5142988;27;20025;-62
2024/04/09 15:20:10;;;;;;;7.07;2.75;;;24.80;73.40;;;;;;5142673;27;20049;-61
2024/04/09 15:23:14;;;;;;;11.65;3.05;;;25.10;75.10;;;;;;5142378;27;20036;-62
2024/04/09 15:26:18;;;;;;;12.20;3.60;;;26.00;76.10;;;;;;5142569;27;20029;-61
2024/04/09 15:29:23;;;;;;;10.45;3.47;;;25.60;74.10;;;;;;5142673;27;20025;-60
2024/04/09 15:32:29;;;;;;;6.38;3.13;;;24.80;73.80;;;;;;5142397;27;20021;-61
2024/04/09 15:35:33;;;;;;;11.02;3.35;;;24.80;73.20;;;;;;5142414;27;20033;-59
2024/04/09 15:38:37;;;;;;;12.68;3.53;;;24.90;72.30;;;;;;5140866;27;20005;-59
2024/04/09 15:41:42;;;;;;;8.15;3.22;;;24.80;72.10;;;;;;5141957;27;20029;-59
2024/04/09 15:44:49;;;;;;;9.18;3.28;;;24.80;72.20;;;;;;5142085;27;20033;-59
2024/04/09 15:47:53;;;;;;;12.35;3.42;;;24.40;71.60;;;;;;5142142;27;20037;-59
2024/04/09 15:50:58;;;;;;;12.27;3.55;;;;;;;;;;5142023;27;20029;-60
2024/04/09 15:54:04;;;;;;;5.28;2.92;;;23.40;70.90;;;;;;5142316;27;20037;-60
2024/04/09 15:57:09;;;;;;;9.60;3.28;;;;;;;;;;5141851;27;20045;-59
2024/04/09 16:00:15;;;;;;;8.75;3.63;;;24.70;70.20;;;;;;5142221;27;20033;-58
2024/04/09 16:03:24;;;;;;;9.00;4.35;;;;;;;;;;5141161;27;20041;-61
2024/04/09 16:06:29;;;;;;;11.00;4.90;;;;;;;;;;5141643;27;20498;-60
2024/04/09 16:09:34;;;;;;;9.00;3.53;;;24.30;70.00;;;;;;5141391;27;20040;-59
2024/04/09 16:12:41;;;;;;;6.75;3.33;;;24.30;69.80;;;;;;5141478;27;20521;-59
2024/04/09 16:15:48;;;;;;;6.10;3.45;;;;;;;;;;5141637;27;20033;-59
2024/04/09 16:18:52;;;;;;;12.95;3.97;;;24.00;69.70;;;;;;5139967;27;20037;-59
2024/04/09 16:21:57;;;;;;;11.90;4.05;;;;;;;;;;5141214;27;20025;-60
2024/04/09 16:25:01;;;;;;;9.73;3.03;;;;;;;;;;5141994;27;20056;-59
2024/04/09 16:28:05;;;;;;;8.43;2.65;;;24.10;69.80;;;;;;5144432;27;20037;-60
2024/04/09 16:31:10;;;;;;;11.35;2.92;;;;;;;;;;5144441;27;20502;-60
2024/04/09 16:34:15;;;;;;;11.45;3.40;;;;;;;;;;5144711;27;20799;-59
2024/04/09 16:37:19;;;;;;;18.52;3.67;;;;;;;;;;5144066;27;20037;-59